createdAt,value
2022-09-07T00:00:08.288Z,19.86
2022-09-07T00:01:08.270Z,19.88
2022-09-07T00:02:08.244Z,19.87
2022-09-07T00:03:08.364Z,19.95
2022-09-07T00:04:08.257Z,19.98
2022-09-07T00:05:08.224Z,19.97
2022-09-07T00:06:08.226Z,19.94
2022-09-07T00:07:08.208Z,20.00
2022-09-07T00:08:08.191Z,19.98
2022-09-07T00:09:08.206Z,20.00
2022-09-07T00:10:08.188Z,19.98
2022-09-07T00:11:08.173Z,20.02
2022-09-07T00:12:08.166Z,20.03
2022-09-07T00:13:08.137Z,20.00
2022-09-07T00:14:08.131Z,20.06
2022-09-07T00:15:08.151Z,19.93
2022-09-07T00:16:08.169Z,20.06
2022-09-07T00:17:08.104Z,19.97
2022-09-07T00:18:08.094Z,20.00
2022-09-07T00:19:08.085Z,20.06
2022-09-07T00:20:08.081Z,20.06
2022-09-07T00:21:08.070Z,20.09
2022-09-07T00:22:08.054Z,20.06
2022-09-07T00:23:08.041Z,20.02
2022-09-07T00:24:08.032Z,20.06
2022-09-07T00:25:08.029Z,20.03
2022-09-07T00:26:08.006Z,20.10
2022-09-07T00:27:08.001Z,20.10
2022-09-07T00:28:07.998Z,20.05
2022-09-07T00:29:07.994Z,20.08
2022-09-07T00:30:07.986Z,20.08
2022-09-07T00:31:08.045Z,20.08
2022-09-07T00:32:07.952Z,19.94
2022-09-07T00:33:07.926Z,20.05
2022-09-07T00:34:07.964Z,19.91
2022-09-07T00:35:07.939Z,20.00
2022-09-07T00:36:07.918Z,19.94
2022-09-07T00:37:07.907Z,19.87
2022-09-07T00:38:07.891Z,19.88
2022-09-07T00:39:07.881Z,19.86
2022-09-07T00:40:07.965Z,19.76
2022-09-07T00:41:07.883Z,19.80
2022-09-07T00:42:07.854Z,19.93
2022-09-07T00:43:07.846Z,19.72
2022-09-07T00:44:07.833Z,19.78
2022-09-07T00:45:07.916Z,19.76
2022-09-07T00:46:07.860Z,19.75
2022-09-07T00:47:07.822Z,19.79
2022-09-07T00:48:07.807Z,19.76
2022-09-07T00:49:07.785Z,19.80
2022-09-07T00:50:07.806Z,19.84
2022-09-07T00:51:07.780Z,19.75
2022-09-07T00:52:07.758Z,19.61
2022-09-07T00:53:07.748Z,19.68
2022-09-07T00:54:07.741Z,19.68
2022-09-07T00:55:07.761Z,19.69
2022-09-07T00:56:07.727Z,19.69
2022-09-07T00:57:07.714Z,19.69
2022-09-07T00:58:07.722Z,19.69
2022-09-07T00:59:07.693Z,19.68
2022-09-07T01:00:07.703Z,19.60
2022-09-07T01:01:07.664Z,19.48
2022-09-07T01:02:07.715Z,19.36
2022-09-07T01:03:07.716Z,19.31
2022-09-07T01:04:07.639Z,19.38
2022-09-07T01:05:09.485Z,19.35
2022-09-07T01:06:08.625Z,19.31
2022-09-07T01:07:07.613Z,19.29
2022-09-07T01:08:07.606Z,19.43
2022-09-07T01:09:07.601Z,19.33
2022-09-07T01:10:07.608Z,19.35
2022-09-07T01:11:07.576Z,19.36
2022-09-07T01:12:07.569Z,19.31
2022-09-07T01:13:07.549Z,19.36
2022-09-07T01:14:07.544Z,19.39
2022-09-07T01:15:07.563Z,19.48
2022-09-07T01:16:07.557Z,19.42
2022-09-07T01:17:07.502Z,19.36
2022-09-07T01:18:07.503Z,19.35
2022-09-07T01:19:07.497Z,19.42
2022-09-07T01:20:07.519Z,19.40
2022-09-07T01:21:07.475Z,19.39
2022-09-07T01:22:07.484Z,19.43
2022-09-07T01:23:07.456Z,19.50
2022-09-07T01:24:07.446Z,19.48
2022-09-07T01:25:07.455Z,19.46
2022-09-07T01:26:07.426Z,19.39
2022-09-07T01:27:07.418Z,19.40
2022-09-07T01:28:07.418Z,19.33
2022-09-07T01:29:07.387Z,19.35
2022-09-07T01:30:07.406Z,19.35
2022-09-07T01:31:07.416Z,19.24
2022-09-07T01:32:07.362Z,19.31
2022-09-07T01:33:07.351Z,19.21
2022-09-07T01:34:07.347Z,19.29
2022-09-07T01:35:07.355Z,19.35
2022-09-07T01:36:07.326Z,19.36
2022-09-07T01:37:07.320Z,19.36
2022-09-07T01:38:07.309Z,19.28
2022-09-07T01:39:07.294Z,19.35
2022-09-07T01:40:07.380Z,19.38
2022-09-07T01:41:07.280Z,19.40
2022-09-07T01:42:07.265Z,19.42
2022-09-07T01:43:07.259Z,19.42
2022-09-07T01:44:07.253Z,19.47
2022-09-07T01:45:07.272Z,19.42
2022-09-07T01:46:07.325Z,19.43
2022-09-07T01:47:07.217Z,19.48
2022-09-07T01:48:07.213Z,19.42
2022-09-07T01:49:07.214Z,19.50
2022-09-07T01:50:07.212Z,19.53
2022-09-07T01:51:07.188Z,19.48
2022-09-07T01:52:07.172Z,19.54
2022-09-07T01:53:07.171Z,19.61
2022-09-07T01:54:07.154Z,19.53
2022-09-07T01:55:07.170Z,19.60
2022-09-07T01:56:07.136Z,19.61
2022-09-07T01:57:07.114Z,19.51
2022-09-07T01:58:07.112Z,19.51
2022-09-07T01:59:07.106Z,19.57
2022-09-07T02:00:07.110Z,19.58
2022-09-07T02:01:07.065Z,19.63
2022-09-07T02:02:07.115Z,19.55
2022-09-07T02:03:07.112Z,19.54
2022-09-07T02:04:07.057Z,19.51
2022-09-07T02:05:07.052Z,19.55
2022-09-07T02:06:07.060Z,19.46
2022-09-07T02:07:07.040Z,19.54
2022-09-07T02:08:07.017Z,19.50
2022-09-07T02:09:06.997Z,19.57
2022-09-07T02:10:07.014Z,19.53
2022-09-07T02:11:06.980Z,19.55
2022-09-07T02:12:06.978Z,19.51
2022-09-07T02:13:06.969Z,19.65
2022-09-07T02:14:06.961Z,19.58
2022-09-07T02:15:06.959Z,19.58
2022-09-07T02:16:07.047Z,19.60
2022-09-07T02:17:06.918Z,19.57
2022-09-07T02:18:06.927Z,19.58
2022-09-07T02:19:06.902Z,19.66
2022-09-07T02:20:06.925Z,19.61
2022-09-07T02:21:06.874Z,19.70
2022-09-07T02:22:06.875Z,19.60
2022-09-07T02:23:06.890Z,19.48
2022-09-07T02:24:06.855Z,19.60
2022-09-07T02:25:06.852Z,19.51
2022-09-07T02:26:06.832Z,19.63
2022-09-07T02:27:06.824Z,19.60
2022-09-07T02:28:06.817Z,19.60
2022-09-07T02:29:06.794Z,19.66
2022-09-07T02:30:06.787Z,19.55
2022-09-07T02:31:06.853Z,19.61
2022-09-07T02:32:06.801Z,19.66
2022-09-07T02:33:06.767Z,19.75
2022-09-07T02:34:06.751Z,19.65
2022-09-07T02:35:06.744Z,19.76
2022-09-07T02:36:06.750Z,19.68
2022-09-07T02:37:06.715Z,19.66
2022-09-07T02:38:06.711Z,19.51
2022-09-07T02:39:06.700Z,19.51
2022-09-07T02:40:06.752Z,19.48
2022-09-07T02:41:07.693Z,19.66
2022-09-07T02:42:06.682Z,19.55
2022-09-07T02:43:06.662Z,19.55
2022-09-07T02:44:06.653Z,19.61
2022-09-07T02:45:06.638Z,19.61
2022-09-07T02:46:06.707Z,19.60
2022-09-07T02:47:06.624Z,19.55
2022-09-07T02:48:06.615Z,19.57
2022-09-07T02:49:06.610Z,19.39
2022-09-07T02:50:06.588Z,19.25
2022-09-07T02:51:06.598Z,19.14
2022-09-07T02:52:06.576Z,19.18
2022-09-07T02:53:06.562Z,19.24
2022-09-07T02:54:06.549Z,19.33
2022-09-07T02:55:06.552Z,19.36
2022-09-07T02:56:06.551Z,19.40
2022-09-07T02:57:06.523Z,19.40
2022-09-07T02:58:06.497Z,19.47
2022-09-07T02:59:07.502Z,19.53
2022-09-07T03:00:06.504Z,19.50
2022-09-07T03:01:06.531Z,19.48
2022-09-07T03:02:06.530Z,19.61
2022-09-07T03:03:06.469Z,19.55
2022-09-07T03:04:06.463Z,19.68
2022-09-07T03:05:06.445Z,19.75
2022-09-07T03:06:06.461Z,19.83
2022-09-07T03:07:06.456Z,19.80
2022-09-07T03:08:06.421Z,19.73
2022-09-07T03:09:06.409Z,19.79
2022-09-07T03:10:06.409Z,19.80
2022-09-07T03:11:06.387Z,19.88
2022-09-07T03:12:06.383Z,19.90
2022-09-07T03:13:06.369Z,19.86
2022-09-07T03:14:06.359Z,19.86
2022-09-07T03:15:06.364Z,19.95
2022-09-07T03:16:06.360Z,19.88
2022-09-07T03:17:06.321Z,19.95
2022-09-07T03:18:06.309Z,20.00
2022-09-07T03:19:06.306Z,20.08
2022-09-07T03:20:06.312Z,20.00
2022-09-07T03:21:06.290Z,19.98
2022-09-07T03:22:06.281Z,19.95
2022-09-07T03:23:06.270Z,19.87
2022-09-07T03:24:06.261Z,19.94
2022-09-07T03:25:06.270Z,20.03
2022-09-07T03:26:06.244Z,19.93
2022-09-07T03:27:06.227Z,19.93
2022-09-07T03:28:06.220Z,19.98
2022-09-07T03:29:06.207Z,20.06
2022-09-07T03:30:06.213Z,19.94
2022-09-07T03:31:06.250Z,19.95
2022-09-07T03:32:06.180Z,20.09
2022-09-07T03:33:06.154Z,19.93
2022-09-07T03:34:06.151Z,20.02
2022-09-07T03:35:06.238Z,19.97
2022-09-07T03:36:06.134Z,19.93
2022-09-07T03:37:06.130Z,19.95
2022-09-07T03:38:06.119Z,19.95
2022-09-07T03:39:06.106Z,19.97
2022-09-07T03:40:06.157Z,20.03
2022-09-07T03:41:06.091Z,19.93
2022-09-07T03:42:06.075Z,19.87
2022-09-07T03:43:06.068Z,19.93
2022-09-07T03:44:06.090Z,19.79
2022-09-07T03:45:06.062Z,19.84
2022-09-07T03:46:06.100Z,19.75
2022-09-07T03:47:06.026Z,19.63
2022-09-07T03:48:06.034Z,19.54
2022-09-07T03:49:06.010Z,19.53
2022-09-07T03:50:06.016Z,19.51
2022-09-07T03:51:05.991Z,19.46
2022-09-07T03:52:05.978Z,19.43
2022-09-07T03:53:05.965Z,19.47
2022-09-07T03:54:05.955Z,19.40
2022-09-07T03:55:05.961Z,19.33
2022-09-07T03:56:05.941Z,19.25
2022-09-07T03:57:05.928Z,19.18
2022-09-07T03:58:05.911Z,19.15
2022-09-07T03:59:06.686Z,19.10
2022-09-07T04:00:05.928Z,19.11
2022-09-07T04:01:05.932Z,19.02
2022-09-07T04:02:05.911Z,19.13
2022-09-07T04:03:05.866Z,19.05
2022-09-07T04:04:05.863Z,18.98
2022-09-07T04:05:05.861Z,18.97
2022-09-07T04:06:05.836Z,18.94
2022-09-07T04:07:05.825Z,18.83
2022-09-07T04:08:05.821Z,18.86
2022-09-07T04:09:05.823Z,18.91
2022-09-07T04:10:05.808Z,18.83
2022-09-07T04:11:05.793Z,18.91
2022-09-07T04:12:05.783Z,18.86
2022-09-07T04:13:05.757Z,18.84
2022-09-07T04:14:05.759Z,18.82
2022-09-07T04:15:05.769Z,18.94
2022-09-07T04:16:05.739Z,18.73
2022-09-07T04:17:05.773Z,18.80
2022-09-07T04:18:05.715Z,18.67
2022-09-07T04:20:48.869Z,18.74
2022-09-07T04:21:48.865Z,18.61
2022-09-07T04:22:51.448Z,18.64
2022-09-07T04:23:49.851Z,18.61
2022-09-07T04:24:48.856Z,18.73
2022-09-07T04:25:48.824Z,18.72
2022-09-07T04:26:48.816Z,18.72
2022-09-07T04:27:48.800Z,18.65
2022-09-07T04:28:48.793Z,18.70
2022-09-07T04:29:48.796Z,18.74
2022-09-07T04:30:48.807Z,18.72
2022-09-07T04:31:48.759Z,18.70
2022-09-07T04:32:49.872Z,18.68
2022-09-07T04:33:49.857Z,18.68
2022-09-07T04:34:49.868Z,18.64
2022-09-07T04:35:49.836Z,18.62
2022-09-07T04:36:49.823Z,18.61
2022-09-07T04:37:49.818Z,18.50
2022-09-07T04:38:49.811Z,18.57
2022-09-07T04:39:49.885Z,18.49
2022-09-07T04:40:49.782Z,18.52
2022-09-07T04:41:49.766Z,18.49
2022-09-07T04:42:49.768Z,18.50
2022-09-07T04:43:49.759Z,18.39
2022-09-07T04:44:49.766Z,18.46
2022-09-07T04:45:49.760Z,18.42
2022-09-07T04:46:49.728Z,18.49
2022-09-07T04:47:49.713Z,18.46
2022-09-07T04:48:49.717Z,18.43
2022-09-07T04:49:49.699Z,18.43
2022-09-07T04:50:49.681Z,18.47
2022-09-07T04:51:49.666Z,18.39
2022-09-07T04:52:50.665Z,18.44
2022-09-07T04:53:49.639Z,18.52
2022-09-07T04:54:49.725Z,18.39
2022-09-07T04:55:49.633Z,18.47
2022-09-07T04:56:49.624Z,18.42
2022-09-07T04:57:49.613Z,18.46
2022-09-07T04:58:49.600Z,18.42
2022-09-07T04:59:49.618Z,18.42
2022-09-07T05:00:49.630Z,18.49
2022-09-07T05:01:49.570Z,18.47
2022-09-07T05:02:49.652Z,18.42
2022-09-07T05:03:49.546Z,18.52
2022-09-07T05:04:49.554Z,18.49
2022-09-07T05:05:49.517Z,18.47
2022-09-07T05:06:49.523Z,18.50
2022-09-07T05:07:49.514Z,18.61
2022-09-07T05:08:49.499Z,18.55
2022-09-07T05:09:49.516Z,18.59
2022-09-07T05:10:49.489Z,18.54
2022-09-07T05:11:49.476Z,18.54
2022-09-07T05:12:49.464Z,18.58
2022-09-07T05:13:49.452Z,18.61
2022-09-07T05:14:49.454Z,18.65
2022-09-07T05:15:49.452Z,18.54
2022-09-07T05:16:49.498Z,18.64
2022-09-07T05:17:49.397Z,18.70
2022-09-07T05:18:49.396Z,18.64
2022-09-07T05:19:49.411Z,18.61
2022-09-07T05:20:49.382Z,18.64
2022-09-07T05:21:49.369Z,18.50
2022-09-07T05:22:49.358Z,18.55
2022-09-07T05:23:49.364Z,18.49
2022-09-07T05:24:49.342Z,18.47
2022-09-07T05:25:49.330Z,18.49
2022-09-07T05:26:49.310Z,18.42
2022-09-07T05:27:49.310Z,18.22
2022-09-07T05:28:49.400Z,18.17
2022-09-07T05:30:05.756Z,18.03
2022-09-07T05:31:51.275Z,18.06
2022-09-07T05:32:49.247Z,18.04
2022-09-07T05:34:53.002Z,18.19
2022-09-07T05:35:50.228Z,18.31
2022-09-07T05:36:49.217Z,18.34
2022-09-07T05:37:49.213Z,18.43
2022-09-07T05:38:49.221Z,18.49
2022-09-07T05:39:49.239Z,18.47
2022-09-07T05:40:49.180Z,18.65
2022-09-07T05:41:49.182Z,18.67
2022-09-07T05:42:50.154Z,18.76
2022-09-07T05:44:51.165Z,18.77
2022-09-07T05:45:49.202Z,18.76
2022-09-07T05:46:49.114Z,18.83
2022-09-07T05:47:49.106Z,18.72
2022-09-07T05:48:49.090Z,18.79
2022-09-07T05:49:50.362Z,18.84
2022-09-07T05:50:49.148Z,18.94
2022-09-07T05:51:49.066Z,18.92
2022-09-07T05:52:49.052Z,18.92
2022-09-07T05:53:49.043Z,19.02
2022-09-07T05:54:49.037Z,19.17
2022-09-07T05:55:49.034Z,19.15
2022-09-07T05:56:49.012Z,19.06
2022-09-07T05:57:49.001Z,19.01
2022-09-07T05:58:48.986Z,19.08
2022-09-07T05:59:49.001Z,19.20
2022-09-07T06:00:48.972Z,19.20
2022-09-07T06:01:49.151Z,19.23
2022-09-07T06:02:49.036Z,19.29
2022-09-07T06:03:48.940Z,19.24
2022-09-07T06:04:48.956Z,19.31
2022-09-07T06:05:48.926Z,19.32
2022-09-07T06:07:17.566Z,19.32
2022-09-07T06:07:50.923Z,19.33
2022-09-07T06:08:48.911Z,19.33
2022-09-07T06:10:50.877Z,19.28
2022-09-07T06:11:48.865Z,19.29
2022-09-07T06:12:49.404Z,19.13
2022-09-07T06:13:48.847Z,19.01
2022-09-07T06:14:48.858Z,18.98
2022-09-07T06:15:48.829Z,18.97
2022-09-07T06:16:48.843Z,18.84
2022-09-07T06:17:48.796Z,18.92
2022-09-07T06:18:48.788Z,18.80
2022-09-07T06:19:48.803Z,18.86
2022-09-07T06:20:48.779Z,18.82
2022-09-07T06:21:48.765Z,18.79
2022-09-07T06:22:48.747Z,19.02
2022-09-07T06:23:48.745Z,19.01
2022-09-07T06:24:48.747Z,19.06
2022-09-07T06:25:48.724Z,19.14
2022-09-07T06:26:48.707Z,19.11
2022-09-07T06:27:48.702Z,19.25
2022-09-07T06:28:50.229Z,19.17
2022-09-07T06:29:49.701Z,19.23
2022-09-07T06:30:48.663Z,19.32
2022-09-07T06:32:50.657Z,19.46
2022-09-07T06:33:48.665Z,19.57
2022-09-07T06:34:48.628Z,19.65
2022-09-07T06:35:48.624Z,19.84
2022-09-07T06:36:48.613Z,19.84
2022-09-07T06:37:48.613Z,19.83
2022-09-07T06:38:48.611Z,19.80
2022-09-07T06:39:48.629Z,19.86
2022-09-07T06:40:48.800Z,19.70
2022-09-07T06:42:04.911Z,19.63
2022-09-07T06:42:50.560Z,19.68
2022-09-07T06:43:48.565Z,19.79
2022-09-07T06:44:48.547Z,19.84
2022-09-07T06:45:48.618Z,19.83
2022-09-07T06:47:04.449Z,19.86
2022-09-07T06:47:50.502Z,19.91
2022-09-07T06:48:48.509Z,20.03
2022-09-07T06:49:48.485Z,20.12
2022-09-07T06:50:48.463Z,20.24
2022-09-07T06:51:48.464Z,20.38
2022-09-07T06:53:50.642Z,20.20
2022-09-07T06:55:03.646Z,20.18
2022-09-07T06:55:50.424Z,20.13
2022-09-07T06:56:48.431Z,19.97
2022-09-07T06:57:48.411Z,19.91
2022-09-07T06:58:48.402Z,19.90
2022-09-07T06:59:48.381Z,19.86
2022-09-07T07:00:48.449Z,20.03
2022-09-07T07:01:48.364Z,19.94
2022-09-07T07:02:48.388Z,20.05
2022-09-07T07:03:48.336Z,20.23
2022-09-07T07:04:48.345Z,20.10
2022-09-07T07:05:48.323Z,20.38
2022-09-07T07:06:48.302Z,20.50
2022-09-07T07:07:48.302Z,20.66
2022-09-07T07:08:48.293Z,20.74
2022-09-07T07:09:48.291Z,20.81
2022-09-07T07:10:48.278Z,20.87
2022-09-07T07:11:48.256Z,21.05
2022-09-07T07:12:48.258Z,21.02
2022-09-07T07:13:48.244Z,21.17
2022-09-07T07:14:48.270Z,21.27
2022-09-07T07:15:48.223Z,21.36
2022-09-07T07:16:48.240Z,21.44
2022-09-07T07:17:56.095Z,21.53
2022-09-07T07:18:50.181Z,21.46
2022-09-07T07:19:48.219Z,21.45
2022-09-07T07:20:49.174Z,21.38
2022-09-07T07:22:10.719Z,21.53
2022-09-07T07:22:50.165Z,21.42
2022-09-07T07:23:48.159Z,21.42
2022-09-07T07:24:48.130Z,21.46
2022-09-07T07:25:48.114Z,21.41
2022-09-07T07:26:48.115Z,21.54
2022-09-07T07:27:48.106Z,21.39
2022-09-07T07:29:04.145Z,21.48
2022-09-07T07:29:50.075Z,21.20
2022-09-07T07:30:48.074Z,21.13
2022-09-07T07:31:48.060Z,21.04
2022-09-07T07:32:48.053Z,21.02
2022-09-07T07:33:48.241Z,20.89
2022-09-07T07:34:48.023Z,20.83
2022-09-07T07:35:49.012Z,20.86
2022-09-07T07:36:48.007Z,20.79
2022-09-07T07:37:48.013Z,20.90
2022-09-07T07:39:03.450Z,20.99
2022-09-07T07:40:21.976Z,20.93
2022-09-07T07:42:48.952Z,21.11
2022-09-07T07:43:47.961Z,21.24
2022-09-07T07:44:48.021Z,21.17
2022-09-07T07:45:55.195Z,21.30
2022-09-07T07:46:49.031Z,21.45
2022-09-07T07:47:47.896Z,21.45
2022-09-07T07:48:47.912Z,21.61
2022-09-07T07:49:48.028Z,21.64
2022-09-07T07:50:47.873Z,21.78
2022-09-07T07:52:50.394Z,21.76
2022-09-07T07:53:48.853Z,21.94
2022-09-07T07:54:47.826Z,21.99
2022-09-07T07:55:47.889Z,21.90
2022-09-07T07:56:47.813Z,21.82
2022-09-07T07:57:47.812Z,21.76
2022-09-07T07:58:47.811Z,21.69
2022-09-07T07:59:47.783Z,21.67
2022-09-07T08:00:56.077Z,21.63
2022-09-07T08:01:50.082Z,21.60
2022-09-07T08:02:47.866Z,21.54
2022-09-07T08:03:47.750Z,21.64
2022-09-07T08:04:47.751Z,21.75
2022-09-07T08:05:47.728Z,21.85
2022-09-07T08:06:47.719Z,21.97
2022-09-07T08:07:47.709Z,22.09
2022-09-07T08:08:47.702Z,22.16
2022-09-07T08:09:47.714Z,22.25
2022-09-07T08:10:47.680Z,22.25
2022-09-07T08:11:47.671Z,22.13
2022-09-07T08:12:47.661Z,22.19
2022-09-07T08:13:47.635Z,22.27
2022-09-07T08:14:47.652Z,22.29
2022-09-07T08:15:47.629Z,22.47
2022-09-07T08:16:47.685Z,22.57
2022-09-07T08:17:47.599Z,22.46
2022-09-07T08:18:47.601Z,22.52
2022-09-07T08:19:47.639Z,22.35
2022-09-07T08:20:48.366Z,22.37
2022-09-07T08:21:47.569Z,22.28
2022-09-07T08:22:47.557Z,22.46
2022-09-07T08:23:47.549Z,22.47
2022-09-07T08:24:47.552Z,22.56
2022-09-07T08:25:47.526Z,22.65
2022-09-07T08:26:47.519Z,22.62
2022-09-07T08:27:47.509Z,22.80
2022-09-07T08:28:47.531Z,22.68
2022-09-07T08:29:47.487Z,22.69
2022-09-07T08:30:47.486Z,22.71
2022-09-07T08:31:47.528Z,22.80
2022-09-07T08:32:47.469Z,22.57
2022-09-07T08:33:47.469Z,22.54
2022-09-07T08:34:47.440Z,22.69
2022-09-07T08:35:47.434Z,22.75
2022-09-07T08:36:47.415Z,22.75
2022-09-07T08:37:47.520Z,22.86
2022-09-07T08:38:47.426Z,22.87
2022-09-07T08:39:47.407Z,22.83
2022-09-07T08:40:47.393Z,22.82
2022-09-07T08:41:47.364Z,22.82
2022-09-07T08:42:47.351Z,22.92
2022-09-07T08:43:49.201Z,22.94
2022-09-07T08:44:48.337Z,23.11
2022-09-07T08:45:47.331Z,23.19
2022-09-07T08:46:47.426Z,23.20
2022-09-07T08:47:47.305Z,23.12
2022-09-07T08:48:47.318Z,23.11
2022-09-07T08:49:47.279Z,23.11
2022-09-07T08:50:47.287Z,23.24
2022-09-07T08:51:47.288Z,23.32
2022-09-07T08:52:47.256Z,23.45
2022-09-07T08:53:47.306Z,23.52
2022-09-07T08:54:47.243Z,23.55
2022-09-07T08:55:47.224Z,23.29
2022-09-07T08:57:49.207Z,23.43
2022-09-07T08:58:49.865Z,23.46
2022-09-07T08:59:48.188Z,23.53
2022-09-07T09:00:47.499Z,23.64
2022-09-07T09:02:26.917Z,23.77
2022-09-07T09:05:49.194Z,24.01
2022-09-07T09:06:47.232Z,24.14
2022-09-07T09:07:47.127Z,24.19
2022-09-07T09:08:47.120Z,24.31
2022-09-07T09:09:47.088Z,24.41
2022-09-07T09:10:47.079Z,24.44
2022-09-07T09:11:47.067Z,24.42
2022-09-07T09:12:47.057Z,24.42
2022-09-07T09:13:47.057Z,24.52
2022-09-07T09:14:47.040Z,24.52
2022-09-07T09:15:47.040Z,24.59
2022-09-07T09:16:47.020Z,24.52
2022-09-07T09:17:47.010Z,24.23
2022-09-07T09:18:47.000Z,23.89
2022-09-07T09:19:47.050Z,23.92
2022-09-07T09:20:46.984Z,23.97
2022-09-07T09:21:46.976Z,24.16
2022-09-07T09:22:46.964Z,24.10
2022-09-07T09:23:46.968Z,24.10
2022-09-07T09:24:46.942Z,24.14
2022-09-07T09:25:46.923Z,24.14
2022-09-07T09:26:46.987Z,24.24
2022-09-07T09:27:46.909Z,24.29
2022-09-07T09:28:46.897Z,24.24
2022-09-07T09:29:46.914Z,24.17
2022-09-07T09:30:46.980Z,24.10
2022-09-07T09:31:46.873Z,23.97
2022-09-07T09:32:46.858Z,23.87
2022-09-07T09:33:46.856Z,23.68
2022-09-07T09:34:46.837Z,23.68
2022-09-07T09:35:46.826Z,23.77
2022-09-07T09:36:46.823Z,23.68
2022-09-07T09:37:46.807Z,23.68
2022-09-07T09:38:46.788Z,23.76
2022-09-07T09:39:49.037Z,23.76
2022-09-07T09:40:46.774Z,23.83
2022-09-07T09:41:46.796Z,23.71
2022-09-07T09:42:46.746Z,23.72
2022-09-07T09:43:46.774Z,23.82
2022-09-07T09:44:46.742Z,23.87
2022-09-07T09:47:29.560Z,23.89
2022-09-07T09:47:47.754Z,24.01
2022-09-07T09:48:46.704Z,24.16
2022-09-07T09:49:46.788Z,24.26
2022-09-07T09:52:51.783Z,24.39
2022-09-07T09:53:47.666Z,24.54
2022-09-07T09:54:46.636Z,24.69
2022-09-07T09:55:46.613Z,24.94
2022-09-07T09:56:47.622Z,25.01
2022-09-07T09:59:04.639Z,25.02
2022-09-07T09:59:58.130Z,24.83
2022-09-07T10:03:56.736Z,24.61
2022-09-07T10:04:48.553Z,24.61
2022-09-07T10:05:46.531Z,24.71
2022-09-07T10:06:46.512Z,24.69
2022-09-07T10:07:46.511Z,24.73
2022-09-07T10:08:46.502Z,24.90
2022-09-07T10:09:46.509Z,24.90
2022-09-07T10:10:46.481Z,24.88
2022-09-07T10:12:48.458Z,24.91
2022-09-07T10:13:46.845Z,25.12
2022-09-07T10:14:46.463Z,25.13
2022-09-07T10:15:46.464Z,25.27
2022-09-07T10:16:46.426Z,25.43
2022-09-07T10:17:46.430Z,25.39
2022-09-07T10:18:46.402Z,25.56
2022-09-07T10:20:12.304Z,25.62
2022-09-07T10:20:46.383Z,25.82
2022-09-07T10:21:46.390Z,25.69
2022-09-07T10:22:50.886Z,25.69
2022-09-07T10:23:48.351Z,25.79
2022-09-07T10:24:46.365Z,25.79
2022-09-07T10:25:46.340Z,25.87
2022-09-07T10:26:46.329Z,25.89
2022-09-07T10:27:46.313Z,26.08
2022-09-07T10:29:48.312Z,26.08
2022-09-07T10:30:46.329Z,26.11
2022-09-07T10:31:46.279Z,25.89
2022-09-07T10:32:46.268Z,25.47
2022-09-07T10:34:25.649Z,25.62
2022-09-07T10:34:48.280Z,25.64
2022-09-07T10:35:46.240Z,25.91
2022-09-07T10:36:46.229Z,25.99
2022-09-07T10:37:46.210Z,26.02
2022-09-07T10:38:46.207Z,26.12
2022-09-07T10:39:46.248Z,26.29
2022-09-07T10:40:46.200Z,26.20
2022-09-07T10:41:46.174Z,26.24
2022-09-07T10:43:20.724Z,26.15
2022-09-07T10:43:48.160Z,25.99
2022-09-07T10:44:46.161Z,25.97
2022-09-07T10:45:46.139Z,26.02
2022-09-07T10:47:01.431Z,26.06
2022-09-07T10:47:48.126Z,25.91
2022-09-07T10:48:46.156Z,25.91
2022-09-07T10:50:48.082Z,25.94
2022-09-07T10:51:46.071Z,26.04
2022-09-07T10:52:46.069Z,26.20
2022-09-07T10:53:46.584Z,26.21
2022-09-07T10:54:46.059Z,26.22
2022-09-07T10:55:46.038Z,26.22
2022-09-07T10:56:46.033Z,26.37
2022-09-07T10:57:49.057Z,26.31
2022-09-07T10:59:02.245Z,26.42
2022-09-07T11:00:47.991Z,26.39
2022-09-07T11:01:45.999Z,26.32
2022-09-07T11:03:24.932Z,26.37
2022-09-07T11:03:48.015Z,26.49
2022-09-07T11:04:45.962Z,26.32
2022-09-07T11:05:45.948Z,26.31
2022-09-07T11:06:45.938Z,26.43
2022-09-07T11:07:45.937Z,26.27
2022-09-07T11:09:47.951Z,26.40
2022-09-07T11:10:46.902Z,26.47
2022-09-07T11:12:01.935Z,26.69
2022-09-07T11:12:47.889Z,26.86
2022-09-07T11:14:09.338Z,26.99
2022-09-07T11:14:47.883Z,26.89
2022-09-07T11:15:45.886Z,26.91
2022-09-07T11:16:53.148Z,26.64
2022-09-07T11:17:52.549Z,26.24
2022-09-07T11:18:46.835Z,26.18
2022-09-07T11:19:45.843Z,26.55
2022-09-07T11:20:45.817Z,26.77
2022-09-07T11:22:01.041Z,26.84
2022-09-07T11:22:47.792Z,26.98
2022-09-07T11:23:45.786Z,27.14
2022-09-07T11:24:46.108Z,27.36
2022-09-07T11:25:46.597Z,27.58
2022-09-07T11:26:45.755Z,27.73
2022-09-07T11:27:45.742Z,27.70
2022-09-07T11:28:45.946Z,27.71
2022-09-07T11:29:45.736Z,27.53
2022-09-07T11:30:45.786Z,27.62
2022-09-07T11:31:45.702Z,27.70
2022-09-07T11:32:45.700Z,27.69
2022-09-07T11:34:23.829Z,27.80
2022-09-07T11:34:47.689Z,27.86
2022-09-07T11:35:45.665Z,27.92
2022-09-07T11:36:45.657Z,27.85
2022-09-07T11:37:45.649Z,27.94
2022-09-07T11:38:45.640Z,27.91
2022-09-07T11:39:45.711Z,27.73
2022-09-07T11:40:45.615Z,27.77
2022-09-07T11:41:45.605Z,27.77
2022-09-07T11:42:45.597Z,27.67
2022-09-07T11:43:45.610Z,27.67
2022-09-07T11:44:45.602Z,27.58
2022-09-07T11:45:45.565Z,27.86
2022-09-07T11:46:45.657Z,27.86
2022-09-07T11:47:45.557Z,28.04
2022-09-07T11:48:45.542Z,28.14
2022-09-07T11:49:51.471Z,28.22
2022-09-07T11:50:46.523Z,28.33
2022-09-07T11:51:45.523Z,28.36
2022-09-07T11:52:45.508Z,28.43
2022-09-07T11:53:45.497Z,28.44
2022-09-07T11:54:45.495Z,28.26
2022-09-07T11:55:45.470Z,28.32
2022-09-07T11:56:45.967Z,28.46
2022-09-07T11:57:46.455Z,28.43
2022-09-07T11:58:45.443Z,28.32
2022-09-07T11:59:45.446Z,28.13
2022-09-07T12:00:46.426Z,27.96
2022-09-07T12:01:45.418Z,27.98
2022-09-07T12:02:58.768Z,28.01
2022-09-07T12:03:47.512Z,27.88
2022-09-07T12:04:45.439Z,27.86
2022-09-07T12:05:45.381Z,27.48
2022-09-07T12:06:45.370Z,27.20
2022-09-07T12:07:45.361Z,27.26
2022-09-07T12:08:45.355Z,27.43
2022-09-07T12:09:45.359Z,27.59
2022-09-07T12:10:45.331Z,27.86
2022-09-07T12:11:45.319Z,28.03
2022-09-07T12:12:45.311Z,28.10
2022-09-07T12:13:45.300Z,28.31
2022-09-07T12:14:45.306Z,28.35
2022-09-07T12:15:45.295Z,28.50
2022-09-07T12:16:45.266Z,28.66
2022-09-07T12:17:45.260Z,28.66
2022-09-07T12:18:45.248Z,28.78
2022-09-07T12:19:45.253Z,28.78
2022-09-07T12:20:45.228Z,29.00
2022-09-07T12:21:45.218Z,29.15
2022-09-07T12:22:45.206Z,29.20
2022-09-07T12:23:45.200Z,29.29
2022-09-07T12:24:45.213Z,29.31
2022-09-07T12:25:45.179Z,29.31
2022-09-07T12:26:45.167Z,29.31
2022-09-07T12:27:45.158Z,28.81
2022-09-07T12:28:45.148Z,28.51
2022-09-07T12:29:45.587Z,28.51
2022-09-07T12:30:45.139Z,27.95
2022-09-07T12:31:57.670Z,27.61
2022-09-07T12:32:55.868Z,27.95
2022-09-07T12:33:47.104Z,28.23
2022-09-07T12:34:45.109Z,28.48
2022-09-07T12:35:45.084Z,28.65
2022-09-07T12:36:45.067Z,28.87
2022-09-07T12:37:45.057Z,28.91
2022-09-07T12:38:45.049Z,28.88
2022-09-07T12:39:45.098Z,29.00
2022-09-07T12:40:45.030Z,29.07
2022-09-07T12:41:47.370Z,29.22
2022-09-07T12:42:45.009Z,29.31
2022-09-07T12:43:45.008Z,29.38
2022-09-07T12:44:45.013Z,29.29
2022-09-07T12:45:44.984Z,29.45
2022-09-07T12:46:46.740Z,29.62
2022-09-07T12:47:44.963Z,29.78
2022-09-07T12:48:44.955Z,29.77
2022-09-07T12:49:44.962Z,29.86
2022-09-07T12:50:44.927Z,29.92
2022-09-07T12:52:06.852Z,30.00
2022-09-07T12:52:46.910Z,29.87
2022-09-07T12:53:44.903Z,29.60
2022-09-07T12:54:44.914Z,29.53
2022-09-07T12:56:47.080Z,29.31
2022-09-07T12:57:44.864Z,29.03
2022-09-07T12:58:44.876Z,29.33
2022-09-07T12:59:44.856Z,29.31
2022-09-07T13:00:44.842Z,29.00
2022-09-07T13:01:44.921Z,28.60
2022-09-07T13:02:44.888Z,28.46
2022-09-07T13:03:52.417Z,28.62
2022-09-07T13:04:46.827Z,28.77
2022-09-07T13:05:44.783Z,28.68
2022-09-07T13:07:46.767Z,29.11
2022-09-07T13:08:44.753Z,29.31
2022-09-07T13:09:44.759Z,29.31
2022-09-07T13:10:44.733Z,29.44
2022-09-07T13:11:45.620Z,29.53
2022-09-07T13:13:00.120Z,29.60
2022-09-07T13:14:04.440Z,29.63
2022-09-07T13:14:46.719Z,29.84
2022-09-07T13:15:44.735Z,29.97
2022-09-07T13:17:46.662Z,29.86
2022-09-07T13:18:44.651Z,29.82
2022-09-07T13:19:44.683Z,29.79
2022-09-07T13:20:44.641Z,29.84
2022-09-07T13:21:44.641Z,30.08